Time;durP1;ratioP1;P1;durP2;ratioP2;P2;SDS_P1;SDS_P2;PMS_P1;PMS_P2;Temp;Humidity;BMP_temperature;BMP_pressure;BME280_temperature;BME280_humidity;BME280_pressure;Samples;Min_cycle;Max_cycle;Signal;HPM_P1;HPM_P2
2023/01/08 00:01:08;;;;;;;6.72;4.95;;;8.40;99.90;;;;;;5095233;28;20020;-72
2023/01/08 00:03:35;;;;;;;8.20;5.15;;;8.40;99.90;;;;;;5093816;28;20024;-72
2023/01/08 00:06:06;;;;;;;10.27;5.00;;;8.40;99.90;;;;;;5095051;28;20094;-71
2023/01/08 00:08:32;;;;;;;11.13;5.25;;;8.40;99.90;;;;;;5093763;28;20536;-72
2023/01/08 00:10:58;;;;;;;10.85;5.25;;;8.40;99.90;;;;;;5092812;28;20111;-73
2023/01/08 00:13:24;;;;;;;7.28;4.85;;;8.40;99.90;;;;;;5093353;28;20077;-72
2023/01/08 00:15:50;;;;;;;9.30;5.35;;;8.40;99.90;;;;;;5092738;28;20028;-73
2023/01/08 00:18:16;;;;;;;8.98;5.00;;;8.40;99.90;;;;;;5109239;28;20075;-73
2023/01/08 00:20:43;;;;;;;8.50;5.20;;;8.50;99.90;;;;;;5096318;28;20403;-73
2023/01/08 00:23:17;;;;;;;9.55;5.45;;;8.40;99.90;;;;;;5096979;28;20032;-72
2023/01/08 00:25:43;;;;;;;6.80;5.18;;;8.40;99.90;;;;;;5095953;28;20027;-72
2023/01/08 00:28:08;;;;;;;8.50;5.03;;;8.40;99.90;;;;;;5096261;28;20031;-72
2023/01/08 00:30:35;;;;;;;8.77;4.80;;;8.40;99.90;;;;;;5096418;28;20031;-72
2023/01/08 00:33:01;;;;;;;10.15;4.60;;;8.50;99.90;;;;;;5114540;28;20445;-72
2023/01/08 00:35:27;;;;;;;7.60;4.82;;;8.50;99.90;;;;;;5096308;28;20034;-72
2023/01/08 00:37:52;;;;;;;8.80;5.05;;;8.40;99.90;;;;;;5095768;28;20455;-71
2023/01/08 00:40:18;;;;;;;9.00;5.13;;;8.40;99.90;;;;;;5114240;28;20032;-72
2023/01/08 00:42:44;;;;;;;9.73;4.55;;;8.40;99.90;;;;;;5095305;28;20024;-73
2023/01/08 00:45:10;;;;;;;8.45;5.10;;;8.50;99.90;;;;;;5096042;28;20062;-72
2023/01/08 00:47:36;;;;;;;10.05;4.90;;;8.50;99.90;;;;;;5096067;28;20374;-72
2023/01/08 00:50:01;;;;;;;9.45;4.50;;;8.50;99.90;;;;;;5095487;28;20031;-72
2023/01/08 00:52:27;;;;;;;7.38;4.60;;;8.60;99.90;;;;;;5095629;28;20076;-72
2023/01/08 00:54:53;;;;;;;9.27;5.07;;;8.60;99.90;;;;;;5095509;28;20492;-73
2023/01/08 00:57:18;;;;;;;7.03;4.50;;;8.60;99.90;;;;;;5096737;28;20051;-72
2023/01/08 00:59:44;;;;;;;6.65;4.45;;;8.60;99.90;;;;;;5115719;28;20144;-73
2023/01/08 01:02:09;;;;;;;7.07;4.53;;;8.60;99.90;;;;;;5097719;28;20473;-72
2023/01/08 01:04:35;;;;;;;6.47;4.32;;;8.70;99.90;;;;;;5098078;28;20118;-72
2023/01/08 01:07:01;;;;;;;8.05;4.43;;;8.70;99.90;;;;;;5115879;28;20050;-72
2023/01/08 01:09:27;;;;;;;7.32;4.78;;;8.60;99.90;;;;;;5097863;28;20023;-72
2023/01/08 01:11:53;;;;;;;7.10;4.25;;;8.60;99.90;;;;;;5096995;28;20077;-72
2023/01/08 01:14:18;;;;;;;8.35;4.78;;;8.50;99.90;;;;;;5097777;28;20023;-71
2023/01/08 01:16:46;;;;;;;8.45;4.50;;;8.60;99.90;;;;;;5097922;28;20031;-72
2023/01/08 01:19:12;;;;;;;7.38;4.65;;;8.60;99.90;;;;;;5099545;28;20088;-72
2023/01/08 01:21:37;;;;;;;8.95;4.60;;;8.70;99.90;;;;;;5117448;28;20028;-72
2023/01/08 01:24:05;;;;;;;12.20;5.20;;;8.60;99.90;;;;;;5098470;28;20024;-73
2023/01/08 01:26:32;;;;;;;7.80;4.28;;;8.60;99.90;;;;;;5113123;28;20381;-72
2023/01/08 01:28:58;;;;;;;8.75;5.43;;;8.60;99.90;;;;;;5094652;28;20023;-73
2023/01/08 01:31:25;;;;;;;7.65;4.45;;;8.50;99.90;;;;;;5095268;28;20026;-73
2023/01/08 01:33:51;;;;;;;7.95;4.30;;;8.60;99.90;;;;;;5094699;28;20020;-73
2023/01/08 01:36:19;;;;;;;6.97;4.38;;;8.60;99.90;;;;;;5095081;28;20038;-73
2023/01/08 01:38:47;;;;;;;8.25;4.43;;;8.60;99.90;;;;;;5094607;28;20027;-73
2023/01/08 01:41:42;;;;;;;8.95;4.65;;;8.50;99.90;;;;;;5094853;28;20027;-72
2023/01/08 01:44:40;;;;;;;7.28;4.78;;;8.60;99.90;;;;;;5095054;28;20026;-73
2023/01/08 01:47:29;;;;;;;9.32;4.32;;;8.50;99.90;;;;;;5094732;28;20024;-73
2023/01/08 01:50:04;;;;;;;7.30;4.57;;;8.50;99.90;;;;;;5094359;28;20031;-73
2023/01/08 01:52:33;;;;;;;7.50;4.40;;;8.50;99.90;;;;;;5094902;28;20076;-73
2023/01/08 01:55:00;;;;;;;7.55;4.80;;;8.50;99.90;;;;;;5094371;28;20023;-73
2023/01/08 01:57:28;;;;;;;8.55;4.80;;;8.50;99.90;;;;;;5094487;28;20028;-73
2023/01/08 01:59:55;;;;;;;6.70;4.20;;;8.50;99.90;;;;;;5094128;28;20032;-73
2023/01/08 02:02:20;;;;;;;8.25;4.90;;;8.50;99.90;;;;;;5111730;28;20031;-72
2023/01/08 02:04:46;;;;;;;8.25;4.75;;;8.50;99.90;;;;;;5094191;28;20024;-73
2023/01/08 02:07:15;;;;;;;8.63;4.85;;;8.50;99.90;;;;;;5094642;28;20032;-73
2023/01/08 02:09:50;;;;;;;6.93;4.88;;;8.50;99.90;;;;;;5112883;28;20028;-73
2023/01/08 02:12:18;;;;;;;9.25;4.60;;;8.50;99.90;;;;;;5112955;28;20059;-73
2023/01/08 02:15:03;;;;;;;6.75;4.28;;;8.50;99.90;;;;;;5112332;28;20023;-74
2023/01/08 02:18:07;;;;;;;6.80;4.40;;;8.50;99.90;;;;;;5094325;28;20044;-74
2023/01/08 02:20:40;;;;;;;7.10;4.53;;;8.50;99.90;;;;;;5094681;28;20027;-73
2023/01/08 02:23:37;;;;;;;7.55;4.40;;;8.50;99.90;;;;;;5112386;28;20035;-73
2023/01/08 02:26:11;;;;;;;7.63;4.75;;;8.50;99.90;;;;;;5112171;28;20035;-73
2023/01/08 02:28:48;;;;;;;9.40;5.43;;;8.50;99.90;;;;;;5112884;28;20089;-73
2023/01/08 02:31:15;;;;;;;7.13;4.38;;;8.50;99.90;;;;;;5094627;28;20067;-73
2023/01/08 02:33:40;;;;;;;7.70;5.28;;;8.40;99.90;;;;;;5094335;28;20027;-73
2023/01/08 02:36:09;;;;;;;5.97;4.05;;;8.40;99.90;;;;;;5093853;28;20127;-73
2023/01/08 02:38:38;;;;;;;8.25;4.75;;;8.30;99.90;;;;;;5094098;28;20034;-72
2023/01/08 02:41:09;;;;;;;7.60;4.68;;;8.30;99.90;;;;;;5093800;28;20240;-73
2023/01/08 02:43:49;;;;;;;6.90;4.57;;;8.40;99.90;;;;;;5094580;28;20481;-73
2023/01/08 02:46:21;;;;;;;7.55;4.47;;;8.40;99.90;;;;;;5094517;28;20283;-73
2023/01/08 02:48:50;;;;;;;8.48;4.93;;;8.50;99.90;;;;;;5093984;28;20023;-74
2023/01/08 02:51:18;;;;;;;7.57;4.47;;;8.50;99.90;;;;;;5112789;28;20476;-73
2023/01/08 02:53:47;;;;;;;8.20;4.80;;;8.50;99.90;;;;;;5094113;28;20479;-73
2023/01/08 02:56:19;;;;;;;7.55;4.63;;;8.50;99.90;;;;;;5112472;28;20039;-73
2023/01/08 02:58:46;;;;;;;5.80;3.72;;;8.50;99.90;;;;;;5094280;28;20485;-73
2023/01/08 03:01:14;;;;;;;9.38;4.82;;;8.50;99.90;;;;;;5094413;28;20071;-73
2023/01/08 03:03:45;;;;;;;7.20;4.43;;;8.60;99.90;;;;;;5112387;28;20020;-73
2023/01/08 03:06:17;;;;;;;9.20;4.50;;;8.50;99.90;;;;;;5093569;28;20035;-73
2023/01/08 03:08:45;;;;;;;8.43;5.05;;;8.50;99.90;;;;;;5094293;28;20026;-73
2023/01/08 03:11:17;;;;;;;7.00;4.18;;;8.50;99.90;;;;;;5094083;28;20023;-73
2023/01/08 03:13:43;;;;;;;;;;;8.50;99.90;;;;;;5113095;28;20043;-73
2023/01/08 03:16:13;;;;;;;6.28;4.40;;;8.50;99.90;;;;;;5097210;28;20015;-73
2023/01/08 03:18:46;;;;;;;6.50;4.20;;;8.50;99.90;;;;;;5097521;28;20048;-73
2023/01/08 03:21:14;;;;;;;8.45;4.50;;;8.40;99.90;;;;;;5097688;28;20026;-73
2023/01/08 03:23:41;;;;;;;7.28;4.47;;;8.50;99.90;;;;;;5097903;28;20081;-73
2023/01/08 03:26:09;;;;;;;7.05;4.32;;;8.50;99.90;;;;;;5096949;28;20535;-74
2023/01/08 03:28:42;;;;;;;9.18;4.38;;;8.50;99.90;;;;;;5116052;28;20031;-73
2023/01/08 03:31:08;;;;;;;7.07;4.05;;;8.50;99.90;;;;;;5115005;28;20047;-73
2023/01/08 03:33:35;;;;;;;7.15;3.70;;;8.50;99.90;;;;;;5097474;28;20073;-73
2023/01/08 03:36:04;;;;;;;10.05;4.68;;;8.40;99.90;;;;;;5115060;28;20032;-73
2023/01/08 03:38:39;;;;;;;6.10;4.15;;;8.40;99.90;;;;;;5096930;28;20034;-73
2023/01/08 03:41:11;;;;;;;6.75;4.22;;;8.40;99.90;;;;;;5114781;28;20020;-73
2023/01/08 03:43:37;;;;;;;6.68;4.10;;;8.50;99.90;;;;;;5097299;28;20034;-73
2023/01/08 03:46:11;;;;;;;6.75;4.32;;;8.50;99.90;;;;;;5096497;28;20027;-73
2023/01/08 03:48:37;;;;;;;9.00;4.47;;;8.50;99.90;;;;;;5097340;28;20035;-73
2023/01/08 03:51:07;;;;;;;7.65;4.53;;;8.60;99.90;;;;;;5096678;28;20027;-73
2023/01/08 03:53:33;;;;;;;7.65;4.65;;;8.50;99.90;;;;;;5115266;28;20042;-73
2023/01/08 03:55:58;;;;;;;9.02;4.28;;;8.50;99.90;;;;;;5096438;28;20468;-73
2023/01/08 03:58:24;;;;;;;5.60;3.83;;;8.50;99.90;;;;;;5096586;28;20023;-73
2023/01/08 04:00:50;;;;;;;6.47;3.88;;;8.50;99.90;;;;;;5114613;28;20028;-74
2023/01/08 04:03:15;;;;;;;6.72;4.38;;;8.50;99.90;;;;;;5115195;28;20023;-73
2023/01/08 04:05:41;;;;;;;6.18;4.30;;;8.60;99.90;;;;;;5096827;28;20468;-73
2023/01/08 04:08:06;;;;;;;7.25;4.40;;;8.50;99.90;;;;;;5114260;28;20098;-73
2023/01/08 04:10:32;;;;;;;7.60;4.03;;;8.60;99.90;;;;;;5096485;28;20077;-73
2023/01/08 04:12:57;;;;;;;5.20;3.75;;;8.60;99.90;;;;;;5114409;28;20020;-74
2023/01/08 04:15:23;;;;;;;8.18;4.40;;;8.60;99.90;;;;;;5114928;28;20066;-73
2023/01/08 04:17:49;;;;;;;9.57;3.95;;;8.60;99.90;;;;;;5114710;28;20385;-72
2023/01/08 04:20:14;;;;;;;6.35;4.15;;;8.50;99.90;;;;;;5095999;28;20486;-73
2023/01/08 04:22:40;;;;;;;7.93;4.43;;;8.50;99.90;;;;;;5096541;28;20024;-73
2023/01/08 04:25:06;;;;;;;5.60;3.75;;;8.40;99.90;;;;;;5095346;28;20054;-73
2023/01/08 04:27:32;;;;;;;6.05;3.92;;;8.50;99.90;;;;;;5095996;28;20043;-73
2023/01/08 04:29:57;;;;;;;5.72;3.95;;;8.50;99.90;;;;;;5114476;28;20111;-73
2023/01/08 04:32:23;;;;;;;8.15;4.15;;;8.50;99.90;;;;;;5114748;28;20031;-73
2023/01/08 04:34:48;;;;;;;6.25;3.97;;;8.50;99.90;;;;;;5096300;28;20028;-73
2023/01/08 04:37:14;;;;;;;6.10;4.10;;;8.50;99.90;;;;;;5113777;28;20030;-73
2023/01/08 04:39:39;;;;;;;6.13;3.47;;;8.50;99.90;;;;;;5096103;28;20080;-73
2023/01/08 04:42:05;;;;;;;5.65;3.75;;;8.50;99.90;;;;;;5095571;28;20138;-74
2023/01/08 04:44:30;;;;;;;6.20;3.83;;;8.50;99.90;;;;;;5114462;28;20042;-73
2023/01/08 04:46:56;;;;;;;7.43;3.80;;;8.40;99.90;;;;;;5113653;28;20031;-73
2023/01/08 04:49:22;;;;;;;6.40;3.90;;;8.50;99.90;;;;;;5096253;28;20020;-73
2023/01/08 04:51:47;;;;;;;6.20;3.85;;;8.50;99.90;;;;;;5095621;28;20465;-73
2023/01/08 04:54:13;;;;;;;7.03;3.80;;;8.40;99.90;;;;;;5095047;28;20020;-73
2023/01/08 04:56:39;;;;;;;6.15;3.78;;;8.40;99.90;;;;;;5095828;28;20035;-73
2023/01/08 04:59:04;;;;;;;6.30;3.90;;;8.40;99.90;;;;;;5113444;28;20413;-73
2023/01/08 05:01:30;;;;;;;5.28;3.83;;;8.50;99.90;;;;;;5095732;28;20028;-73
2023/01/08 05:04:01;;;;;;;7.07;4.03;;;8.50;99.90;;;;;;5095248;28;20529;-74
2023/01/08 05:06:29;;;;;;;7.55;3.90;;;8.50;99.90;;;;;;5095670;28;20031;-73
2023/01/08 05:08:54;;;;;;;7.82;4.18;;;8.50;99.90;;;;;;5095150;28;20453;-73
2023/01/08 05:11:20;;;;;;;6.78;4.15;;;8.50;99.90;;;;;;5113845;28;20028;-72
2023/01/08 05:13:48;;;;;;;7.88;4.57;;;8.50;99.90;;;;;;5095506;28;20038;-73
2023/01/08 05:16:14;;;;;;;6.55;4.05;;;8.40;99.90;;;;;;5094947;28;20027;-73
2023/01/08 05:18:39;;;;;;;5.40;3.72;;;8.40;99.90;;;;;;5113295;28;20590;-73
2023/01/08 05:21:05;;;;;;;5.22;3.60;;;8.40;99.90;;;;;;5113273;28;20055;-73
2023/01/08 05:23:33;;;;;;;4.95;3.53;;;8.50;99.90;;;;;;5095383;28;20089;-73
2023/01/08 05:26:00;;;;;;;5.65;3.40;;;8.50;99.90;;;;;;5112970;28;20034;-73
2023/01/08 05:28:26;;;;;;;5.45;3.45;;;8.50;99.90;;;;;;5113156;28;20486;-73
2023/01/08 05:30:53;;;;;;;5.63;3.28;;;8.50;99.90;;;;;;5095202;28;20028;-73
2023/01/08 05:33:19;;;;;;;7.20;3.30;;;8.50;99.90;;;;;;5112909;28;20036;-73
2023/01/08 05:35:44;;;;;;;5.55;3.30;;;8.60;99.90;;;;;;5095175;28;20024;-73
2023/01/08 05:38:10;;;;;;;6.97;3.33;;;8.60;99.90;;;;;;5112702;28;20099;-73
2023/01/08 05:40:35;;;;;;;4.95;3.03;;;8.60;99.90;;;;;;5113199;28;20123;-73
2023/01/08 05:43:02;;;;;;;4.82;2.80;;;8.60;99.90;;;;;;5112771;28;20027;-73
2023/01/08 05:45:28;;;;;;;5.10;2.85;;;8.60;99.90;;;;;;5113119;28;20026;-73
2023/01/08 05:47:55;;;;;;;5.68;2.63;;;8.70;99.90;;;;;;5094552;28;20110;-73
2023/01/08 05:50:20;;;;;;;4.07;2.80;;;8.70;99.90;;;;;;5094903;28;20030;-73
2023/01/08 05:52:46;;;;;;;4.57;2.47;;;8.70;99.90;;;;;;5094801;28;20036;-73
2023/01/08 05:55:11;;;;;;;4.32;2.65;;;8.70;99.90;;;;;;5094388;28;20027;-73
2023/01/08 05:57:37;;;;;;;4.47;2.53;;;8.70;99.90;;;;;;5112892;28;20487;-73
2023/01/08 06:00:07;;;;;;;6.32;2.83;;;8.80;99.90;;;;;;5094561;28;20038;-73
2023/01/08 06:02:33;;;;;;;3.13;2.22;;;8.80;99.90;;;;;;5094967;28;20028;-73
2023/01/08 06:04:59;;;;;;;5.30;2.30;;;8.70;99.90;;;;;;5094576;28;20031;-73
2023/01/08 06:07:24;;;;;;;3.00;2.15;;;8.80;99.90;;;;;;5094449;28;20055;-73
2023/01/08 06:09:50;;;;;;;3.80;2.30;;;8.70;99.90;;;;;;5094624;28;20020;-73
2023/01/08 06:12:16;;;;;;;3.53;2.28;;;8.70;99.90;;;;;;5112480;28;20494;-73
2023/01/08 06:14:41;;;;;;;2.22;1.90;;;8.80;99.90;;;;;;5094680;28;20034;-73
2023/01/08 06:17:07;;;;;;;5.32;2.40;;;8.80;99.90;;;;;;5093891;28;20051;-73
2023/01/08 06:19:32;;;;;;;4.65;2.30;;;8.80;99.90;;;;;;5112922;28;20027;-73
2023/01/08 06:21:58;;;;;;;3.45;2.30;;;8.80;99.90;;;;;;5112102;28;20095;-74
2023/01/08 06:24:23;;;;;;;4.45;2.33;;;8.80;99.90;;;;;;5112892;28;20102;-73
2023/01/08 06:26:49;;;;;;;4.43;2.50;;;8.80;99.90;;;;;;5112754;28;20043;-73
2023/01/08 06:29:15;;;;;;;4.13;2.20;;;8.80;99.90;;;;;;5094062;28;20031;-73
2023/01/08 06:31:40;;;;;;;3.85;1.90;;;8.90;99.90;;;;;;5112395;28;20028;-73
2023/01/08 06:34:06;;;;;;;3.03;2.05;;;8.80;99.90;;;;;;5094098;28;20020;-73
2023/01/08 06:36:31;;;;;;;2.70;1.90;;;8.90;99.90;;;;;;5094477;28;20097;-73
2023/01/08 06:38:57;;;;;;;3.53;2.22;;;8.90;99.90;;;;;;5094427;28;20028;-72
2023/01/08 06:41:22;;;;;;;2.97;2.28;;;8.90;99.90;;;;;;5112250;28;20024;-73
2023/01/08 06:43:48;;;;;;;4.65;2.20;;;8.90;99.90;;;;;;5094579;28;20444;-74
2023/01/08 06:46:14;;;;;;;4.25;2.30;;;8.80;99.90;;;;;;5093787;28;20535;-73
2023/01/08 06:48:40;;;;;;;2.47;1.90;;;8.80;99.90;;;;;;5094966;28;20020;-72
2023/01/08 06:51:06;;;;;;;3.13;2.35;;;8.80;99.90;;;;;;5116269;28;20465;-73
2023/01/08 06:53:31;;;;;;;3.67;2.13;;;8.80;99.90;;;;;;5098460;28;20055;-73
2023/01/08 06:55:57;;;;;;;4.18;2.22;;;8.90;99.90;;;;;;5116578;28;20388;-73
2023/01/08 06:58:26;;;;;;;4.35;2.33;;;8.80;99.90;;;;;;5097578;28;20114;-73
2023/01/08 07:00:52;;;;;;;4.97;2.60;;;8.90;99.90;;;;;;5116424;28;20028;-73
2023/01/08 07:03:18;;;;;;;8.77;3.97;;;8.90;99.90;;;;;;5097595;28;20020;-73
2023/01/08 07:05:44;;;;;;;21.73;6.15;;;8.90;99.90;;;;;;5097908;28;20084;-73
2023/01/08 07:08:15;;;;;;;17.25;6.05;;;8.90;99.90;;;;;;5115585;28;20031;-73
2023/01/08 07:10:42;;;;;;;13.95;4.72;;;8.90;99.90;;;;;;5116411;28;20031;-73
2023/01/08 07:13:08;;;;;;;8.05;3.88;;;8.90;99.90;;;;;;5097445;28;20088;-73
2023/01/08 07:15:35;;;;;;;7.70;3.25;;;8.90;99.90;;;;;;5097979;28;20031;-73
2023/01/08 07:18:04;;;;;;;4.20;2.80;;;8.90;99.90;;;;;;5115375;28;20480;-74
2023/01/08 07:20:31;;;;;;;5.25;2.90;;;8.90;99.90;;;;;;5116006;28;20016;-73
2023/01/08 07:23:03;;;;;;;8.00;3.40;;;8.90;99.90;;;;;;5097349;28;20043;-73
2023/01/08 07:25:29;;;;;;;13.05;5.70;;;9.00;99.90;;;;;;5097502;28;20024;-73
2023/01/08 07:27:55;;;;;;;9.15;4.47;;;9.00;99.90;;;;;;5097432;28;20035;-73
2023/01/08 07:30:21;;;;;;;17.05;6.30;;;9.00;99.90;;;;;;5115013;28;20219;-73
2023/01/08 07:32:46;;;;;;;19.67;7.80;;;9.00;99.90;;;;;;5115450;28;20023;-73
2023/01/08 07:35:12;;;;;;;14.98;6.85;;;9.00;99.90;;;;;;5096924;28;20032;-73
2023/01/08 07:37:41;;;;;;;9.43;3.92;;;9.00;99.90;;;;;;5097400;28;20042;-73
2023/01/08 07:40:11;;;;;;;9.90;4.05;;;9.00;99.90;;;;;;5096789;28;20024;-73
2023/01/08 07:42:37;;;;;;;5.00;2.60;;;9.00;99.90;;;;;;5097249;28;20035;-73
2023/01/08 07:45:03;;;;;;;3.00;2.30;;;9.00;99.90;;;;;;5114992;28;20095;-78
2023/01/08 07:47:28;;;;;;;3.67;2.25;;;9.00;99.90;;;;;;5097318;28;20032;-73
2023/01/08 07:49:54;;;;;;;3.25;2.10;;;9.10;99.90;;;;;;5096442;28;20030;-73
2023/01/08 07:52:19;;;;;;;2.58;1.90;;;9.00;99.90;;;;;;5096659;28;20020;-73
2023/01/08 07:54:45;;;;;;;3.42;1.85;;;9.10;99.90;;;;;;5097328;28;20032;-73
2023/01/08 07:57:10;;;;;;;3.90;2.20;;;9.00;99.90;;;;;;5096461;28;20035;-73
2023/01/08 07:59:36;;;;;;;3.90;2.00;;;9.10;99.90;;;;;;5097005;28;20504;-73
2023/01/08 08:02:02;;;;;;;3.22;1.77;;;9.10;99.90;;;;;;5096971;28;20031;-73
2023/01/08 08:04:27;;;;;;;3.15;1.83;;;9.10;99.90;;;;;;5096157;28;20487;-73
2023/01/08 08:06:53;;;;;;;4.30;2.25;;;9.10;99.90;;;;;;5115121;28;20028;-73
2023/01/08 08:09:19;;;;;;;2.50;1.90;;;9.10;99.90;;;;;;5114534;28;20020;-73
2023/01/08 08:11:45;;;;;;;5.50;2.33;;;9.20;99.90;;;;;;5096860;28;20373;-73
2023/01/08 08:14:10;;;;;;;5.18;2.00;;;9.20;99.90;;;;;;5114458;28;20084;-73
2023/01/08 08:16:36;;;;;;;4.70;2.08;;;9.20;99.90;;;;;;5114935;28;20034;-74
2023/01/08 08:19:02;;;;;;;3.78;2.20;;;9.20;99.90;;;;;;5096667;28;20160;-73
2023/01/08 08:21:31;;;;;;;3.58;2.33;;;9.20;99.90;;;;;;5096001;28;20031;-73
2023/01/08 08:23:56;;;;;;;3.63;1.95;;;9.20;99.90;;;;;;5114759;28;20059;-73
2023/01/08 08:26:22;;;;;;;3.97;2.55;;;9.20;99.90;;;;;;5095739;28;20482;-74
2023/01/08 08:28:48;;;;;;;6.25;2.13;;;9.20;99.90;;;;;;5096418;28;20031;-73
2023/01/08 08:31:14;;;;;;;2.83;2.00;;;9.20;99.90;;;;;;5114427;28;20019;-73
2023/01/08 08:33:39;;;;;;;7.72;4.30;;;9.20;99.90;;;;;;5095947;28;20088;-73
2023/01/08 08:36:06;;;;;;;4.80;2.75;;;9.20;99.90;;;;;;5095854;28;20084;-77
2023/01/08 08:38:31;;;;;;;5.75;2.78;;;9.20;99.90;;;;;;5096476;28;20032;-73
2023/01/08 08:40:57;;;;;;;3.13;2.20;;;9.10;99.90;;;;;;5096142;28;20072;-73
2023/01/08 08:43:22;;;;;;;4.65;2.40;;;9.00;99.90;;;;;;5113854;28;20031;-73
2023/01/08 08:45:48;;;;;;;2.80;1.75;;;9.00;99.90;;;;;;5096013;28;20389;-73
2023/01/08 08:48:15;;;;;;;4.00;1.98;;;9.00;99.90;;;;;;5095521;28;20023;-73
2023/01/08 08:50:41;;;;;;;2.85;1.95;;;9.10;99.90;;;;;;5095996;28;20461;-73
2023/01/08 08:53:08;;;;;;;3.70;1.70;;;9.10;99.90;;;;;;5095383;28;20035;-74
2023/01/08 08:55:34;;;;;;;3.47;2.08;;;9.10;99.90;;;;;;5096125;28;20456;-73
2023/01/08 08:58:05;;;;;;;3.60;2.13;;;9.10;99.90;;;;;;5095774;28;20122;-73
2023/01/08 09:00:31;;;;;;;3.33;2.10;;;9.20;99.90;;;;;;5095261;28;20076;-73
2023/01/08 09:02:57;;;;;;;3.90;2.03;;;9.20;99.90;;;;;;5113935;28;20413;-73
2023/01/08 09:05:22;;;;;;;3.72;1.98;;;9.20;99.90;;;;;;5113325;28;20031;-73
2023/01/08 09:07:48;;;;;;;3.83;1.80;;;9.10;99.90;;;;;;5095731;28;20380;-73
2023/01/08 09:10:14;;;;;;;2.75;2.00;;;9.20;99.90;;;;;;5095117;28;20035;-73
2023/01/08 09:12:39;;;;;;;4.20;1.70;;;9.20;99.90;;;;;;5095090;28;20384;-73
2023/01/08 09:15:06;;;;;;;3.22;1.90;;;9.20;99.90;;;;;;5095505;28;20040;-73
2023/01/08 09:17:32;;;;;;;6.22;1.90;;;9.20;99.90;;;;;;5094777;28;20047;-73
2023/01/08 09:19:58;;;;;;;4.18;1.80;;;9.20;99.90;;;;;;5095367;28;20024;-73
2023/01/08 09:22:23;;;;;;;2.92;1.60;;;9.30;99.90;;;;;;5112867;28;20073;-74
2023/01/08 09:24:49;;;;;;;4.05;1.88;;;9.30;99.90;;;;;;5095077;28;20023;-73
2023/01/08 09:27:15;;;;;;;6.22;1.77;;;9.30;99.90;;;;;;5112697;28;20045;-73
2023/01/08 09:29:40;;;;;;;2.85;2.00;;;9.30;99.90;;;;;;5113530;28;20035;-72
2023/01/08 09:32:06;;;;;;;2.30;1.70;;;9.30;99.90;;;;;;5095306;28;20028;-73
2023/01/08 09:34:34;;;;;;;2.33;1.73;;;9.30;99.90;;;;;;5094743;28;20138;-73
2023/01/08 09:37:00;;;;;;;2.38;1.80;;;9.30;99.90;;;;;;5113276;28;20499;-73
2023/01/08 09:39:26;;;;;;;2.15;1.88;;;9.30;99.90;;;;;;5094659;28;20024;-73
2023/01/08 09:41:53;;;;;;;3.83;1.80;;;9.40;99.90;;;;;;5095031;28;20028;-73
2023/01/08 09:44:24;;;;;;;2.65;1.90;;;9.40;99.90;;;;;;5112893;28;20024;-73
2023/01/08 09:46:52;;;;;;;3.72;1.55;;;9.40;99.90;;;;;;5095092;28;20049;-73
2023/01/08 09:49:23;;;;;;;3.53;1.73;;;9.40;99.90;;;;;;5113042;28;20068;-73
2023/01/08 09:51:49;;;;;;;3.47;1.63;;;9.40;99.90;;;;;;5095319;28;20024;-73
2023/01/08 09:54:16;;;;;;;4.32;1.70;;;9.40;99.90;;;;;;5112620;28;20023;-73
2023/01/08 09:56:43;;;;;;;1.80;1.70;;;9.40;99.90;;;;;;5094708;28;20028;-73
2023/01/08 09:59:13;;;;;;;1.75;1.58;;;9.40;99.90;;;;;;5094782;28;20549;-72
2023/01/08 10:01:40;;;;;;;2.75;1.50;;;9.50;99.90;;;;;;5095071;28;20062;-73
2023/01/08 10:04:19;;;;;;;1.98;1.70;;;9.40;99.90;;;;;;5094694;28;20027;-73
2023/01/08 10:06:53;;;;;;;2.40;1.55;;;9.40;99.90;;;;;;5094895;28;20038;-73
2023/01/08 10:09:24;;;;;;;2.40;1.30;;;9.50;99.90;;;;;;5094415;28;20024;-73
2023/01/08 10:11:51;;;;;;;1.50;1.40;;;9.60;99.90;;;;;;5113118;28;20035;-73
2023/01/08 10:14:23;;;;;;;2.75;1.50;;;9.50;99.90;;;;;;5094238;28;20039;-73
2023/01/08 10:16:54;;;;;;;1.35;1.02;;;9.60;99.90;;;;;;5094622;28;20059;-73
2023/01/08 10:19:21;;;;;;;3.45;1.52;;;9.60;99.90;;;;;;5094342;28;20092;-74
2023/01/08 10:21:47;;;;;;;1.85;1.20;;;9.60;99.90;;;;;;5094754;28;20380;-73
2023/01/08 10:24:13;;;;;;;2.22;1.20;;;9.60;99.90;;;;;;5114227;28;20028;-74
2023/01/08 10:26:38;;;;;;;2.63;1.40;;;9.70;99.90;;;;;;5098614;28;20039;-73
2023/01/08 10:29:12;;;;;;;2.00;1.15;;;9.80;99.90;;;;;;5098718;28;20027;-73
2023/01/08 10:31:53;;;;;;;3.13;1.45;;;9.80;99.90;;;;;;5098879;28;20031;-73
2023/01/08 10:34:32;;;;;;;2.47;1.20;;;9.90;99.90;;;;;;5098155;28;20028;-72
2023/01/08 10:36:57;;;;;;;3.42;1.92;;;9.90;99.90;;;;;;5098754;28;20034;-73
2023/01/08 10:39:27;;;;;;;4.18;2.28;;;10.00;99.90;;;;;;5116332;28;20031;-74
2023/01/08 10:41:56;;;;;;;3.40;1.85;;;9.90;99.90;;;;;;5098430;28;20388;-73
2023/01/08 10:44:24;;;;;;;3.72;1.60;;;10.00;99.90;;;;;;5116236;28;20024;-73
2023/01/08 10:46:53;;;;;;;2.20;1.30;;;10.00;99.90;;;;;;5116536;28;20066;-73
2023/01/08 10:49:33;;;;;;;2.08;1.10;;;10.10;99.90;;;;;;5097854;28;20376;-73
2023/01/08 10:51:59;;;;;;;2.40;1.50;;;10.20;99.90;;;;;;5098452;28;20032;-73
2023/01/08 10:54:35;;;;;;;2.05;1.52;;;10.20;99.90;;;;;;5097616;28;20034;-73
2023/01/08 10:57:01;;;;;;;1.40;0.90;;;10.30;99.90;;;;;;5116449;28;20031;-73
2023/01/08 10:59:27;;;;;;;2.35;1.10;;;10.30;99.90;;;;;;5115951;28;20031;-73
2023/01/08 11:01:56;;;;;;;2.72;1.40;;;10.30;99.90;;;;;;5098015;28;20030;-73
2023/01/08 11:04:34;;;;;;;1.83;1.00;;;10.30;99.90;;;;;;5115906;28;20026;-73
2023/01/08 11:07:04;;;;;;;0.63;0.50;;;10.30;99.90;;;;;;5116209;28;20433;-73
2023/01/08 11:09:47;;;;;;;1.30;0.88;;;10.30;99.90;;;;;;5116097;28;20080;-73
2023/01/08 11:12:38;;;;;;;2.10;1.00;;;10.30;99.90;;;;;;5098006;28;20354;-73
2023/01/08 11:15:22;;;;;;;0.75;0.75;;;10.40;99.90;;;;;;5086435;28;20085;-73
2023/01/08 11:17:48;;;;;;;1.52;0.60;;;10.40;99.90;;;;;;5115403;28;20058;-73
2023/01/08 11:20:22;;;;;;;1.08;0.70;;;10.40;99.90;;;;;;5114874;28;20036;-73
2023/01/08 11:22:49;;;;;;;2.33;0.77;;;10.40;99.90;;;;;;5114683;28;20103;-73
2023/01/08 11:25:26;;;;;;;2.25;0.65;;;10.60;99.90;;;;;;5096524;28;20035;-75
2023/01/08 11:27:52;;;;;;;1.00;0.60;;;10.70;99.90;;;;;;5114855;28;20499;-73
2023/01/08 11:30:21;;;;;;;1.20;0.80;;;10.80;99.90;;;;;;5095946;28;20576;-74
2023/01/08 11:33:15;;;;;;;1.00;0.60;;;10.80;99.90;;;;;;5114742;28;20027;-73
2023/01/08 11:35:49;;;;;;;2.97;1.00;;;10.90;99.90;;;;;;5096215;28;20114;-73
2023/01/08 11:38:15;;;;;;;0.70;0.60;;;10.90;99.90;;;;;;5114716;28;20047;-73
2023/01/08 11:40:50;;;;;;;0.55;0.55;;;10.90;99.90;;;;;;5114417;28;20023;-73
2023/01/08 11:43:35;;;;;;;5.43;1.02;;;11.00;99.90;;;;;;5096145;28;20027;-79
2023/01/08 11:46:06;;;;;;;0.73;0.65;;;11.00;99.90;;;;;;5096133;28;20028;-73
2023/01/08 11:48:32;;;;;;;1.35;0.80;;;11.00;99.90;;;;;;5095748;28;20024;-72
2023/01/08 11:51:13;;;;;;;1.27;0.70;;;11.10;99.90;;;;;;5096269;28;20035;-73
2023/01/08 11:53:46;;;;;;;0.95;0.75;;;11.10;99.90;;;;;;5095682;28;20031;-73
2023/01/08 11:56:41;;;;;;;1.27;0.75;;;11.10;99.90;;;;;;5096243;28;20389;-73
2023/01/08 11:59:31;;;;;;;2.72;0.85;;;11.00;99.90;;;;;;5114218;28;20094;-73
2023/01/08 12:02:21;;;;;;;7.53;4.50;;;11.10;99.90;;;;;;5096152;28;20511;-73
2023/01/08 12:05:01;;;;;;;7.93;3.28;;;11.10;99.90;;;;;;5096033;28;20473;-72
2023/01/08 12:07:55;;;;;;;2.00;1.42;;;11.30;99.90;;;;;;5095498;28;20469;-73
2023/01/08 12:10:50;;;;;;;1.40;1.00;;;11.40;99.90;;;;;;5095475;28;20046;-73
2023/01/08 12:13:24;;;;;;;1.00;0.80;;;11.40;99.90;;;;;;5095592;28;20031;-72
2023/01/08 12:16:04;;;;;;;0.70;0.50;;;11.40;99.90;;;;;;5095900;28;20051;-73
2023/01/08 12:18:57;;;;;;;1.30;0.88;;;11.30;99.90;;;;;;5041129;28;1074391;-72
2023/01/08 12:21:38;;;;;;;1.00;0.70;;;11.40;99.90;;;;;;5092970;28;20381;-72
2023/01/08 12:24:27;;;;;;;0.80;0.50;;;11.20;99.90;;;;;;5094729;28;20028;-73
2023/01/08 12:27:19;;;;;;;2.00;0.70;;;11.20;99.90;;;;;;5092486;28;20042;-72
2023/01/08 12:30:07;;;;;;;;;;;11.10;99.90;;;;;;5094983;28;20036;-73
2023/01/08 12:32:38;;;;;;;1.42;0.95;;;11.00;99.90;;;;;;5094014;28;19942;-72
2023/01/08 12:35:08;;;;;;;0.93;0.50;;;11.00;99.90;;;;;;5093376;28;20412;-72
2023/01/08 12:37:59;;;;;;;1.08;0.60;;;11.00;99.90;;;;;;5092548;28;20043;-72
2023/01/08 12:40:34;;;;;;;0.85;0.40;;;11.00;99.90;;;;;;5092604;28;20465;-73
2023/01/08 12:43:05;;;;;;;0.40;0.40;;;11.10;99.90;;;;;;5093943;28;20028;-73
2023/01/08 12:45:39;;;;;;;1.02;0.40;;;11.10;99.90;;;;;;5092399;28;20031;-73
2023/01/08 12:48:22;;;;;;;0.57;0.30;;;11.20;99.90;;;;;;5093413;28;20032;-73
2023/01/08 12:51:16;;;;;;;1.23;0.60;;;11.20;99.90;;;;;;5093012;28;20047;-72
2023/01/08 12:54:18;;;;;;;0.82;0.40;;;11.10;99.90;;;;;;5093701;28;20016;-73
2023/01/08 12:57:01;;;;;;;0.50;0.40;;;11.20;99.90;;;;;;5093616;28;20024;-73
2023/01/08 12:59:55;;;;;;;0.52;0.40;;;11.10;99.90;;;;;;5093769;28;20039;-73
2023/01/08 13:02:35;;;;;;;0.75;0.45;;;11.10;99.90;;;;;;5092782;28;20047;-73
2023/01/08 13:05:19;;;;;;;0.77;0.50;;;11.00;99.90;;;;;;5092808;28;20025;-73
2023/01/08 13:08:07;;;;;;;0.98;0.60;;;10.90;99.90;;;;;;5091993;28;20450;-73